Time;durP1;ratioP1;P1;durP2;ratioP2;P2;SDS_P1;SDS_P2;PMS_P1;PMS_P2;Temp;Humidity;BMP_temperature;BMP_pressure;BME280_temperature;BME280_humidity;BME280_pressure;Samples;Min_cycle;Max_cycle;Signal;HPM_P1;HPM_P2
2023/01/10 00:05:56;;;;;;;65.70;33.70;;;;;;;3.22;100.00;99665.81;216964;1296;138765;-91
2023/01/10 00:17:56;;;;;;;58.20;27.50;;;;;;;3.38;100.00;99687.64;217754;1297;104932;-91
2023/01/10 00:24:22;;;;;;;48.00;23.90;;;;;;;3.48;100.00;99689.92;217116;1298;139560;-92
2023/01/10 00:30:00;;;;;;;50.70;26.50;;;;;;;3.57;100.00;99694.65;217486;1296;106426;-91
2023/01/10 00:35:57;;;;;;;;;;;;;;;;;;;;;
2023/01/10 00:48:00;;;;;;;45.50;22.80;;;;;;;3.81;100.00;99711.32;217486;1298;105454;-91
2023/01/10 00:54:02;;;;;;;44.20;22.90;;;;;;;3.86;100.00;99716.06;216855;1296;138936;-91
2023/01/10 00:59:55;;;;;;;;;;;;;;;;;;;;;
2023/01/10 01:06:06;;;;;;;39.80;20.60;;;;;;;3.94;100.00;99735.46;216941;1296;138350;-91
2023/01/10 01:12:07;;;;;;;42.70;21.60;;;;;;;3.95;100.00;99733.17;216908;1296;138477;-90
2023/01/10 01:18:08;;;;;;;42.30;19.50;;;;;;;3.97;100.00;99736.31;217571;1296;104867;-92
2023/01/10 01:29:30;;;;;;;42.70;22.30;;;;;;;4.05;100.00;99754.58;217494;1297;100862;-91
2023/01/10 01:35:32;;;;;;;37.80;19.30;;;;;;;4.07;100.00;99766.08;216651;1299;138508;-91
2023/01/10 01:47:27;;;;;;;;;;;;;;;;;;;;;
2023/01/10 01:53:33;;;;;;;;;;;;;;;;;;;;;
2023/01/10 01:59:36;;;;;;;31.50;16.00;;;;;;;4.09;100.00;99789.52;217196;1296;94683;-91
2023/01/10 02:05:37;;;;;;;28.60;16.00;;;;;;;4.06;100.00;99794.52;216909;1298;139110;-91
2023/01/10 02:17:52;;;;;;;28.90;14.80;;;;;;;4.09;100.00;99799.27;217215;1297;138713;-90
2023/01/10 02:30:09;;;;;;;24.70;13.10;;;;;;;4.08;100.00;99806.30;217554;1298;94559;-91
2023/01/10 02:42:22;;;;;;;;;;;;;;;;;;;;;
2023/01/10 03:07:28;;;;;;;20.50;12.00;;;;;;;4.00;100.00;99834.16;217000;1299;138460;-91
2023/01/10 03:19:40;;;;;;;25.90;10.70;;;;;;;3.95;100.00;99847.73;217498;1298;94593;-91
2023/01/10 03:25:34;;;;;;;;;;;;;;;;;;;;;
2023/01/10 03:31:52;;;;;;;24.00;12.30;;;;;;;3.93;100.00;99862.70;217519;1296;109863;-91
2023/01/10 03:38:04;;;;;;;;;;;;;;;;;;;;;
2023/01/10 03:49:56;;;;;;;;;;;;;;;;;;;;;
2023/01/10 03:55:57;;;;;;;;;;;;;;;;;;;;;
2023/01/10 04:01:52;;;;;;;;;;;;;;;;;;;;;
2023/01/10 04:08:02;;;;;;;22.30;10.20;;;;;;;3.73;100.00;99918.02;217406;1296;109694;-89
2023/01/10 04:20:05;;;;;;;16.90;9.20;;;;;;;3.69;100.00;99938.25;217452;1296;111253;-90
2023/01/10 04:26:08;;;;;;;23.20;10.60;;;;;;;3.66;100.00;99953.80;216919;1296;138350;-90
2023/01/10 04:32:09;;;;;;;19.70;10.40;;;;;;;3.65;100.00;99966.84;216964;1298;138733;-90
2023/01/10 04:49:50;;;;;;;;;;;;;;;;;;;;;
2023/01/10 05:02:01;;;;;;;22.60;10.40;;;;;;;3.74;100.00;100035.45;217230;1299;108782;-90
2023/01/10 05:07:54;;;;;;;;;;;;;;;;;;;;;
2023/01/10 05:14:02;;;;;;;20.90;11.20;;;;;;;3.79;100.00;100060.48;216680;1298;138838;-90
2023/01/10 05:26:05;;;;;;;18.50;10.10;;;;;;;3.85;100.00;100067.67;216822;1299;138504;-92
2023/01/10 05:31:58;;;;;;;;;;;;;;;;;;;;;
2023/01/10 05:38:07;;;;;;;19.30;9.90;;;;;;;3.86;100.00;100088.47;217264;1298;108974;-90
2023/01/10 05:44:08;;;;;;;18.40;10.40;;;;;;;3.87;100.00;100104.05;216840;1299;138615;-90
2023/01/10 05:50:09;;;;;;;17.40;9.70;;;;;;;3.90;100.00;100121.66;217114;1298;110761;-90
2023/01/10 06:02:12;;;;;;;21.50;11.30;;;;;;;3.92;100.00;100141.33;216574;1299;139672;-90
2023/01/10 06:20:16;;;;;;;20.80;10.50;;;;;;;3.97;100.00;100180.77;217030;1298;109812;-88
2023/01/10 06:26:18;;;;;;;21.80;11.10;;;;;;;3.99;100.00;100194.84;216065;1299;139185;-88
2023/01/10 06:32:19;;;;;;;24.00;11.00;;;;;;;4.00;100.00;100203.75;216294;1298;143440;-89
2023/01/10 06:44:21;;;;;;;22.40;12.00;;;;;;;4.06;100.00;100220.75;216135;1298;138748;-87
2023/01/10 06:50:14;;;;;;;;;;;;;;;;;;;;;
2023/01/10 06:56:23;;;;;;;31.30;16.00;;;;;;;4.12;100.00;100236.83;216087;1298;138793;-87
2023/01/10 07:02:24;;;;;;;26.00;13.20;;;;;;;4.14;100.00;100245.23;216239;1299;139293;-87
2023/01/10 07:08:25;;;;;;;25.10;11.80;;;;;;;4.15;100.00;100253.64;216736;1298;109821;-89
2023/01/10 07:14:27;;;;;;;23.10;10.70;;;;;;;4.18;100.00;100262.86;216255;1299;138176;-88
2023/01/10 07:20:28;;;;;;;24.80;11.00;;;;;;;4.22;100.00;100272.82;216757;1298;109798;-89
2023/01/10 07:26:18;;;;;;;;;;;;;;;;;;;;;
2023/01/10 07:32:31;;;;;;;25.00;10.30;;;;;;;4.32;100.00;100297.73;216158;1298;138651;-87
2023/01/10 07:38:31;;;;;;;21.60;10.90;;;;;;;4.36;100.00;100305.89;216761;1299;109744;-89
2023/01/10 07:44:33;;;;;;;20.90;10.50;;;;;;;4.40;100.00;100310.30;216269;1298;139053;-87
2023/01/10 07:50:19;;;;;;;20.90;10.50;;;;;;;4.43;100.00;100317.27;216813;1298;109839;-89
2023/01/10 07:56:12;;;;;;;;;;;;;;;;;;;;;
2023/01/10 08:02:09;;;;;;;22.90;11.00;;;;;;;4.53;100.00;100330.45;216347;1298;138704;-87
2023/01/10 08:08:10;;;;;;;24.40;12.80;;;;;;;4.58;100.00;100349.05;216844;1301;110735;-89
2023/01/10 08:14:11;;;;;;;23.60;11.40;;;;;;;4.63;100.00;100353.59;216145;1298;138583;-88
2023/01/10 08:20:12;;;;;;;25.50;12.30;;;;;;;4.69;100.00;100360.40;216843;1298;109965;-88
2023/01/10 08:26:13;;;;;;;26.40;12.20;;;;;;;4.74;100.00;100374.38;216196;1299;138560;-88
2023/01/10 08:38:16;;;;;;;25.70;14.20;;;;;;;4.85;100.00;100379.55;216787;1299;109752;-88
2023/01/10 08:44:15;;;;;;;;;;;;;;;;;;;;;
2023/01/10 08:50:10;;;;;;;;;;;;;;;;;;;;;
2023/01/10 08:56:10;;;;;;;;;;;;;;;;;;;;;
2023/01/10 09:02:13;;;;;;;26.00;13.00;;;;;;;5.03;100.00;100418.11;216062;1299;139625;-88
2023/01/10 09:08:14;;;;;;;27.60;12.90;;;;;;;5.09;100.00;100425.70;216804;1299;109961;-89
2023/01/10 09:14:16;;;;;;;24.60;13.10;;;;;;;5.14;100.00;100441.45;216151;1299;138715;-89
2023/01/10 09:20:17;;;;;;;26.70;13.50;;;;;;;5.17;100.00;100442.86;216561;1299;109756;-88
2023/01/10 09:26:18;;;;;;;27.10;13.20;;;;;;;5.20;100.00;100452.50;216348;1299;138476;-89
2023/01/10 09:32:11;;;;;;;;;;;;;;;;;;;;;
2023/01/10 09:38:15;;;;;;;;;;;;;;;;;;;;;
2023/01/10 09:50:50;;;;;;;;;;;;;;;;;;;;;
2023/01/10 09:56:51;;;;;;;;;;;;;;;;;;;;;
2023/01/10 10:02:56;;;;;;;29.40;13.90;;;;;;;5.57;100.00;100489.08;216546;1299;139392;-91
2023/01/10 10:21:13;;;;;;;27.40;15.30;;;;;;;5.72;100.00;100494.55;217245;1299;105038;-91
2023/01/10 10:33:37;;;;;;;;;;;;;;;;;;;;;
2023/01/10 10:39:40;;;;;;;24.40;13.20;;;;;;;5.81;100.00;100505.89;217402;1295;104661;-89
2023/01/10 10:45:59;;;;;;;37.80;13.80;;;;;;;5.87;100.00;100505.91;216839;1297;138619;-90
2023/01/10 10:52:25;;;;;;;25.60;12.50;;;;;;;5.94;100.00;100518.47;217261;1296;104909;-90
2023/01/10 10:58:17;;;;;;;;;;;;;;;;;;;;;
2023/01/10 11:04:27;;;;;;;25.80;14.10;;;;;;;6.10;100.00;100531.50;212743;1296;5366350;-92
2023/01/10 11:16:45;;;;;;;31.70;14.70;;;;;;;6.31;100.00;100548.61;216241;1298;138213;-88
2023/01/10 11:22:58;;;;;;;25.40;13.70;;;;;;;6.37;100.00;100558.80;216483;1297;138486;-89
2023/01/10 11:28:59;;;;;;;27.60;13.40;;;;;;;6.42;100.00;100572.45;217053;1297;108942;-89
2023/01/10 11:41:19;;;;;;;33.20;14.90;;;;;;;6.57;100.00;100596.51;216992;1296;106535;-87
2023/01/10 11:47:19;;;;;;;;;;;;;;;;;;;;;
2023/01/10 11:53:25;;;;;;;24.20;13.30;;;;;;;6.59;100.00;100606.16;216442;1298;139280;-87
2023/01/10 11:59:15;;;;;;;;;;;;;;;;;;;;;
2023/01/10 12:05:37;;;;;;;;;;;;;;;;;;;;;
2023/01/10 12:11:18;;;;;;;28.70;13.30;;;;;;;6.62;100.00;100631.89;216769;1297;107501;-88
2023/01/10 12:17:23;;;;;;;25.80;14.30;;;;;;;6.61;100.00;100634.27;216403;1297;138394;-88
2023/01/10 12:23:27;;;;;;;27.90;13.00;;;;;;;6.58;100.00;100639.50;216431;1298;139204;-87
2023/01/10 12:29:28;;;;;;;24.10;11.80;;;;;;;6.55;100.00;100649.42;216991;1298;107587;-88
2023/01/10 12:35:35;;;;;;;25.00;12.80;;;;;;;6.55;100.00;100651.53;216229;1299;138704;-87
2023/01/10 12:54:12;;;;;;;18.50;10.90;;;;;;;6.56;100.00;100650.45;216513;1298;138731;-87
2023/01/10 13:00:16;;;;;;;20.20;11.00;;;;;;;6.56;100.00;100651.33;216888;1296;94765;-86
2023/01/10 13:06:17;;;;;;;21.00;10.30;;;;;;;6.59;100.00;100657.72;216537;1296;138380;-86
2023/01/10 13:12:13;;;;;;;;;;;;;;;;;;;;;
2023/01/10 13:18:15;;;;;;;20.60;10.20;;;;;;;6.68;100.00;100666.76;216992;1296;94722;-86
2023/01/10 13:24:34;;;;;;;18.70;9.90;;;;;;;6.71;100.00;100673.57;216572;1297;138564;-85
2023/01/10 13:31:03;;;;;;;20.70;10.80;;;;;;;6.72;100.00;100679.23;216778;1296;95524;-85
2023/01/10 13:49:09;;;;;;;26.60;11.50;;;;;;;6.69;100.00;100708.13;217028;1298;94718;-86
2023/01/10 13:55:14;;;;;;;;;;;;;;;;;;;;;
2023/01/10 14:07:35;;;;;;;25.20;10.30;;;;;;;6.60;100.00;100712.23;216665;1296;221364;-86
2023/01/10 14:13:36;;;;;;;24.00;13.10;;;;;;;6.58;100.00;100731.24;216516;1296;138736;-86
2023/01/10 14:19:38;;;;;;;28.30;15.70;;;;;;;6.56;100.00;100740.70;216965;1296;94570;-86
2023/01/10 14:25:45;;;;;;;25.00;13.70;;;;;;;6.51;100.00;100743.83;216540;1296;138178;-88
2023/01/10 14:31:39;;;;;;;;;;;;;;;;;;;;;
2023/01/10 14:43:54;;;;;;;29.40;14.30;;;;;;;6.41;100.00;100763.27;216436;1296;138666;-86
2023/01/10 14:50:02;;;;;;;35.00;19.70;;;;;;;6.42;100.00;100766.71;216840;1296;94871;-86
2023/01/10 14:56:02;;;;;;;34.60;15.90;;;;;;;6.41;100.00;100766.91;216339;1297;139094;-86
2023/01/10 15:02:03;;;;;;;33.90;17.70;;;;;;;6.38;100.00;100779.25;216960;1296;96045;-84
2023/01/10 15:08:10;;;;;;;30.30;15.90;;;;;;;6.34;100.00;100793.64;216811;1296;95269;-86
2023/01/10 15:14:16;;;;;;;28.50;15.70;;;;;;;6.32;100.00;100800.90;216262;1296;139289;-88
2023/01/10 15:27:08;;;;;;;39.10;21.00;;;;;;;6.30;100.00;100816.00;216723;1296;138080;-87
2023/01/10 15:38:56;;;;;;;28.00;15.90;;;;;;;6.29;100.00;100822.41;215433;1296;94811;-84
2023/01/10 15:45:04;;;;;;;33.00;18.50;;;;;;;6.28;100.00;100826.45;216527;1296;138517;-86
2023/01/10 15:51:04;;;;;;;32.20;16.70;;;;;;;6.26;100.00;100832.73;216791;1298;96161;-87
2023/01/10 15:57:13;;;;;;;32.10;18.30;;;;;;;6.24;100.00;100843.75;216572;1296;138199;-86
2023/01/10 16:03:26;;;;;;;31.70;17.30;;;;;;;6.26;100.00;100838.39;216352;1298;138552;-86
2023/01/10 16:09:07;;;;;;;31.40;17.50;;;;;;;6.24;100.00;100830.31;216682;1297;94845;-86
2023/01/10 16:15:09;;;;;;;30.80;15.90;;;;;;;6.22;100.00;100827.50;216369;1299;138444;-87
2023/01/10 16:21:18;;;;;;;34.20;18.40;;;;;;;6.14;100.00;100842.55;216821;1297;94668;-87
2023/01/10 16:27:15;;;;;;;;;;;;;;;;;;;;;
2023/01/10 16:33:22;;;;;;;41.80;21.10;;;;;;;5.91;100.00;100863.38;216419;1298;139849;-86
2023/01/10 16:39:11;;;;;;;;;;;;;;;;;;;;;
2023/01/10 16:45:18;;;;;;;;;;;;;;;;;;;;;
2023/01/10 16:51:22;;;;;;;32.60;18.40;;;;;;;5.70;100.00;100869.91;216955;1296;94786;-87
2023/01/10 16:57:26;;;;;;;42.70;21.00;;;;;;;5.66;100.00;100873.58;216499;1296;139131;-87
2023/01/10 17:03:12;;;;;;;40.60;22.00;;;;;;;5.65;100.00;100880.17;216422;1299;139088;-87
2023/01/10 17:09:05;;;;;;;55.00;26.70;;;;;;;5.63;100.00;100877.14;217000;1298;94677;-87
2023/01/10 17:15:07;;;;;;;51.90;25.50;;;;;;;5.54;100.00;100881.80;216353;1296;138573;-87
2023/01/10 17:21:07;;;;;;;58.00;37.10;;;;;;;5.44;100.00;100883.44;216821;1296;95061;-87
2023/01/10 17:27:08;;;;;;;41.00;22.40;;;;;;;5.31;100.00;100881.98;216258;1296;139861;-87
2023/01/10 17:33:11;;;;;;;45.90;28.00;;;;;;;5.18;100.00;100894.27;216472;1297;139163;-87
2023/01/10 17:39:10;;;;;;;41.40;25.30;;;;;;;5.06;100.00;100886.54;216863;1296;94921;-87
2023/01/10 17:45:12;;;;;;;50.00;27.50;;;;;;;4.90;100.00;100897.48;216563;1296;228885;-86
2023/01/10 17:51:10;;;;;;;;;;;;;;;;;;;;;
2023/01/10 17:57:14;;;;;;;38.90;20.70;;;;;;;4.67;100.00;100896.81;216466;1296;139483;-87
2023/01/10 18:09:16;;;;;;;46.60;21.90;;;;;;;4.49;100.00;100903.45;216827;1296;109796;-87
2023/01/10 18:15:09;;;;;;;;;;;;;;;;;;;;;
2023/01/10 18:21:09;;;;;;;;;;;;;;;;;;;;;
2023/01/10 18:33:06;;;;;;;;;;;;;;;;;;;;;
2023/01/10 18:39:17;;;;;;;57.70;32.90;;;;;;;4.32;100.00;100932.99;216987;1300;110695;-85
2023/01/10 18:45:19;;;;;;;54.20;30.90;;;;;;;4.32;100.00;100938.61;216419;1298;139278;-87
2023/01/10 18:51:17;;;;;;;;;;;;;;;;;;;;;
2023/01/10 18:57:20;;;;;;;53.60;28.60;;;;;;;4.34;100.00;100949.29;216597;1299;138553;-85
2023/01/10 19:03:20;;;;;;;56.30;29.10;;;;;;;4.39;100.00;100944.98;216528;1299;138959;-86
2023/01/10 19:09:24;;;;;;;56.00;29.10;;;;;;;4.43;100.00;100947.29;216878;1296;109754;-86
2023/01/10 19:15:23;;;;;;;;;;;;;;;;;;;;;
2023/01/10 19:21:29;;;;;;;54.20;29.80;;;;;;;4.53;100.00;100945.15;216898;1297;110712;-86
2023/01/10 19:27:21;;;;;;;;;;;;;;;;;;;;;
2023/01/10 19:33:31;;;;;;;52.50;30.00;;;;;;;4.56;100.00;100940.20;216513;1296;139173;-86
2023/01/10 19:39:37;;;;;;;61.00;34.40;;;;;;;4.61;100.00;100940.48;216928;1297;109942;-86
2023/01/10 19:45:38;;;;;;;73.50;38.20;;;;;;;4.65;100.00;100949.01;216520;1296;138863;-87
2023/01/10 19:51:40;;;;;;;74.40;37.80;;;;;;;4.69;100.00;100949.56;216914;1297;109654;-88
2023/01/10 19:57:41;;;;;;;68.30;37.80;;;;;;;4.73;100.00;100949.71;216640;1299;138419;-86
2023/01/10 20:03:40;;;;;;;;;;;;;;;;;;;;;
2023/01/10 20:09:43;;;;;;;63.70;35.40;;;;;;;4.78;100.00;100952.68;216832;1297;109762;-86
2023/01/10 20:15:44;;;;;;;73.30;39.50;;;;;;;4.82;100.00;100951.84;216396;1296;139169;-87
2023/01/10 20:21:44;;;;;;;67.10;34.40;;;;;;;4.85;100.00;100950.16;216958;1298;109706;-86
2023/01/10 20:27:45;;;;;;;63.80;33.60;;;;;;;4.88;100.00;100948.67;217062;1296;110454;-87
2023/01/10 20:33:47;;;;;;;65.30;35.40;;;;;;;4.89;100.00;100949.34;216315;1297;139020;-88
2023/01/10 20:39:48;;;;;;;63.60;34.70;;;;;;;4.91;100.00;100945.52;216899;1299;110063;-87
2023/01/10 20:45:49;;;;;;;59.10;32.80;;;;;;;4.92;100.00;100944.27;216258;1298;138766;-88
2023/01/10 20:51:53;;;;;;;61.70;33.10;;;;;;;4.92;100.00;100943.04;216793;1299;110096;-87
2023/01/10 21:03:53;;;;;;;46.90;27.70;;;;;;;4.95;100.00;100941.55;216223;1297;139280;-87
2023/01/10 21:09:54;;;;;;;51.40;26.90;;;;;;;4.95;100.00;100947.08;216864;1296;109694;-87
2023/01/10 21:15:48;;;;;;;;;;;;;;;;;;;;;
2023/01/10 21:27:56;;;;;;;68.70;33.80;;;;;;;4.97;100.00;100935.48;216897;1297;109570;-88
2023/01/10 21:33:55;;;;;;;;;;;;;;;;;;;;;
2023/01/10 21:39:59;;;;;;;68.40;30.50;;;;;;;4.98;100.00;100922.96;217004;1299;110066;-87
2023/01/10 21:46:00;;;;;;;69.50;34.20;;;;;;;4.97;100.00;100924.19;216389;1298;138706;-87
2023/01/10 21:52:01;;;;;;;59.40;31.70;;;;;;;4.97;100.00;100928.30;216928;1297;109625;-87
2023/01/10 21:57:59;;;;;;;54.40;27.40;;;;;;;4.96;100.00;100933.01;217107;1297;111858;-87
2023/01/10 22:03:40;;;;;;;;;;;;;;;4.94;100.00;100935.44;216284;1296;138946;-88
2023/01/10 22:09:41;;;;;;;40.80;21.10;;;;;;;4.93;100.00;100934.85;216955;1297;107973;-88
2023/01/10 22:15:31;;;;;;;;;;;;;;;;;;;;;
2023/01/10 22:21:39;;;;;;;42.40;21.40;;;;;;;4.95;100.00;100932.89;216922;1296;110080;-88
2023/01/10 22:27:40;;;;;;;42.20;22.00;;;;;;;4.94;100.00;100927.50;217007;1296;109692;-87
2023/01/10 22:33:41;;;;;;;52.40;25.20;;;;;;;4.95;100.00;100927.98;216364;1296;138509;-88
2023/01/10 22:39:42;;;;;;;46.60;24.90;;;;;;;4.94;100.00;100923.52;216972;1296;108819;-87
2023/01/10 22:45:35;;;;;;;;;;;;;;;;;;;;;
2023/01/10 22:51:36;;;;;;;;;;;;;;;;;;;;;
2023/01/10 22:57:44;;;;;;;44.80;23.00;;;;;;;4.93;100.00;100899.69;217160;1298;139306;-90
2023/01/10 23:09:39;;;;;;;;;;;;;;;;;;;;;
2023/01/10 23:15:40;;;;;;;;;;;;;;;;;;;;;
